createdAt,value
2023-04-02T00:02:21.757Z,66.94
2023-04-02T00:05:16.767Z,67.08
2023-04-02T00:07:49.088Z,66.74
2023-04-02T00:10:33.731Z,66.71
2023-04-02T00:13:17.811Z,65.99
2023-04-02T00:15:49.293Z,65.78
2023-04-02T00:18:23.181Z,65.72
2023-04-02T00:21:19.740Z,65.58
2023-04-02T00:23:47.087Z,64.74
2023-04-02T00:26:43.405Z,64.41
2023-04-02T00:29:15.062Z,64.23
2023-04-02T00:31:44.566Z,64.73
2023-04-02T00:34:38.262Z,64.91
2023-04-02T00:37:06.080Z,65.43
2023-04-02T00:39:42.347Z,65.20
2023-04-02T00:42:12.777Z,65.47
2023-04-02T00:44:45.601Z,65.27
2023-04-02T00:47:47.867Z,64.94
2023-04-02T00:50:15.717Z,64.70
2023-04-02T00:52:48.431Z,64.34
2023-04-02T00:55:21.637Z,64.27
2023-04-02T00:57:49.991Z,63.98
2023-04-02T01:00:29.435Z,63.65
2023-04-02T01:03:18.317Z,63.32
2023-04-02T01:05:50.412Z,62.84
2023-04-02T01:08:23.731Z,62.15
2023-04-02T01:10:53.715Z,61.70
2023-04-02T01:13:26.107Z,61.26
2023-04-02T01:16:20.919Z,60.91
2023-04-02T01:19:02.065Z,60.90
2023-04-02T01:21:53.958Z,61.21
2023-04-02T01:24:22.214Z,61.04
2023-04-02T01:26:59.959Z,61.00
2023-04-02T01:29:42.464Z,60.73
2023-04-02T01:32:13.120Z,60.31
2023-04-02T01:34:44.866Z,60.06
2023-04-02T01:37:14.910Z,59.91
2023-04-02T01:39:44.991Z,59.98
2023-04-02T01:42:14.838Z,60.08
2023-04-02T01:44:48.570Z,59.89
2023-04-02T01:47:18.921Z,60.37
2023-04-02T01:49:46.720Z,61.47
2023-04-02T01:52:25.997Z,61.95
2023-04-02T01:54:53.805Z,62.39
2023-04-02T01:57:21.494Z,62.65
2023-04-02T01:59:48.954Z,62.79
2023-04-02T02:02:16.548Z,63.30
2023-04-02T02:04:44.612Z,63.44
2023-04-02T02:07:20.923Z,63.51
2023-04-02T02:09:53.342Z,63.71
2023-04-02T02:12:21.566Z,64.15
2023-04-02T02:14:50.400Z,63.61
2023-04-02T02:17:24.313Z,63.90
2023-04-02T02:19:57.130Z,63.64
2023-04-02T02:22:39.060Z,64.15
2023-04-02T02:25:13.842Z,64.26
2023-04-02T02:28:04.033Z,64.41
2023-04-02T02:31:28.133Z,64.63
2023-04-02T02:34:04.396Z,64.54
2023-04-02T02:36:40.254Z,64.71
2023-04-02T02:39:13.423Z,65.07
2023-04-02T02:41:49.790Z,65.19
2023-04-02T02:44:23.147Z,65.45
2023-04-02T02:46:54.834Z,65.91
2023-04-02T02:49:28.976Z,65.99
2023-04-02T02:52:13.636Z,66.19
2023-04-02T02:54:55.090Z,66.06
2023-04-02T02:57:33.911Z,66.28
2023-04-02T03:00:05.693Z,66.02
2023-04-02T03:02:36.867Z,66.34
2023-04-02T03:05:07.675Z,66.23
2023-04-02T03:07:37.430Z,66.64
2023-04-02T03:10:41.393Z,66.78
2023-04-02T03:13:27.179Z,66.96
2023-04-02T03:16:09.457Z,66.64
2023-04-02T03:18:51.149Z,66.47
2023-04-02T03:21:25.251Z,66.79
2023-04-02T03:24:01.317Z,66.89
2023-04-02T03:26:38.396Z,67.00
2023-04-02T03:29:19.837Z,67.22
2023-04-02T03:32:06.222Z,67.40
2023-04-02T03:34:46.979Z,67.72
2023-04-02T03:37:33.239Z,67.92
2023-04-02T03:40:15.455Z,69.12
2023-04-02T03:43:00.479Z,69.82
2023-04-02T03:45:32.536Z,69.91
2023-04-02T03:48:16.252Z,69.86
2023-04-02T03:50:46.907Z,69.73
2023-04-02T03:53:14.168Z,70.01
2023-04-02T03:55:43.122Z,69.97
2023-04-02T03:58:29.153Z,70.06
2023-04-02T04:01:12.565Z,69.97
2023-04-02T04:03:45.272Z,69.27
2023-04-02T04:06:23.528Z,68.26
2023-04-02T04:09:01.200Z,67.03
2023-04-02T04:11:34.996Z,66.55
2023-04-02T04:14:16.447Z,66.22
2023-04-02T04:16:54.234Z,65.84
2023-04-02T04:19:39.408Z,63.17
2023-04-02T04:22:15.124Z,61.62
2023-04-02T04:24:46.030Z,61.72
2023-04-02T04:27:33.871Z,62.62
2023-04-02T04:30:36.829Z,62.65
2023-04-02T04:33:16.915Z,61.91
2023-04-02T04:35:52.464Z,61.21
2023-04-02T04:38:28.251Z,61.07
2023-04-02T04:41:02.392Z,61.18
2023-04-02T04:43:32.120Z,64.34
2023-04-02T04:46:08.523Z,65.64
2023-04-02T04:48:38.176Z,65.74
2023-04-02T04:51:37.534Z,66.01
2023-04-02T04:54:05.542Z,66.79
2023-04-02T04:56:35.147Z,66.70
2023-04-02T04:59:27.315Z,67.00
2023-04-02T05:02:24.788Z,67.19
2023-04-02T05:04:53.966Z,66.81
2023-04-02T05:07:29.937Z,65.65
2023-04-02T05:10:20.334Z,63.30
2023-04-02T05:13:07.950Z,60.92
2023-04-02T05:16:01.452Z,58.23
2023-04-02T05:18:36.769Z,56.18
2023-04-02T05:21:07.122Z,52.57
2023-04-02T05:23:58.115Z,50.09
2023-04-02T05:26:32.634Z,49.81
2023-04-02T05:29:36.372Z,50.06
2023-04-02T05:32:14.068Z,48.87
2023-04-02T05:34:47.317Z,45.54
2023-04-02T05:37:19.832Z,45.83
2023-04-02T05:39:52.940Z,44.46
2023-04-02T05:42:31.935Z,43.82
2023-04-02T05:45:09.001Z,42.24
2023-04-02T05:47:41.269Z,42.89
2023-04-02T05:50:40.481Z,44.22
2023-04-02T05:53:23.022Z,46.08
2023-04-02T05:56:00.051Z,44.38
2023-04-02T05:58:44.040Z,42.56
2023-04-02T06:01:49.784Z,40.53
2023-04-02T06:04:32.838Z,39.02
2023-04-02T06:07:19.720Z,40.11
2023-04-02T06:09:58.620Z,39.82
2023-04-02T06:12:32.288Z,39.11
2023-04-02T06:15:01.132Z,37.54
2023-04-02T06:17:43.510Z,36.71
2023-04-02T06:20:16.820Z,38.39
2023-04-02T06:22:51.563Z,40.55
2023-04-02T06:25:28.270Z,39.61
2023-04-02T06:28:00.080Z,38.96
2023-04-02T06:30:39.653Z,37.58
2023-04-02T06:33:08.210Z,37.26
2023-04-02T06:35:39.991Z,36.88
2023-04-02T06:38:19.744Z,36.14
2023-04-02T06:40:53.262Z,36.90
2023-04-02T06:43:51.247Z,36.85
2023-04-02T06:46:41.278Z,37.89
2023-04-02T06:49:51.704Z,40.96
2023-04-02T06:52:28.972Z,39.47
2023-04-02T06:54:57.724Z,37.61
2023-04-02T06:57:25.281Z,36.83
2023-04-02T06:59:54.075Z,36.89
2023-04-02T07:02:26.936Z,35.63
2023-04-02T07:05:05.016Z,35.45
2023-04-02T07:07:34.428Z,36.83
2023-04-02T07:10:04.567Z,35.83
2023-04-02T07:12:31.788Z,34.92
2023-04-02T07:14:58.968Z,35.26
2023-04-02T07:17:27.077Z,39.17
2023-04-02T07:19:54.317Z,36.64
2023-04-02T07:22:23.836Z,35.97
2023-04-02T07:24:55.376Z,37.01
2023-04-02T07:27:22.707Z,36.19
2023-04-02T07:29:49.830Z,36.17
2023-04-02T07:32:17.451Z,36.12
2023-04-02T07:34:44.531Z,37.67
2023-04-02T07:37:14.657Z,36.83
2023-04-02T07:39:41.992Z,36.68
2023-04-02T07:42:09.058Z,36.19
2023-04-02T07:44:36.344Z,36.62
2023-04-02T07:47:04.215Z,37.52
2023-04-02T07:49:31.333Z,37.24
2023-04-02T07:51:58.466Z,38.82
2023-04-02T07:54:27.406Z,40.67
2023-04-02T07:56:54.562Z,41.73
2023-04-02T07:59:21.768Z,41.68
2023-04-02T08:01:49.023Z,43.22
2023-04-02T08:04:21.564Z,40.99
2023-04-02T08:06:49.857Z,40.61
2023-04-02T08:09:17.782Z,41.38
2023-04-02T08:11:46.702Z,42.05
2023-04-02T08:14:14.321Z,41.87
2023-04-02T08:16:47.730Z,42.88
2023-04-02T08:19:15.835Z,41.41
2023-04-02T08:21:43.401Z,43.13
2023-04-02T08:24:10.483Z,43.84
2023-04-02T08:26:37.808Z,45.68
2023-04-02T08:29:05.130Z,44.64
2023-04-02T08:31:32.468Z,45.64
2023-04-02T08:33:59.724Z,45.46
2023-04-02T08:36:33.615Z,47.22
2023-04-02T08:39:01.382Z,47.67
2023-04-02T08:41:31.202Z,44.88
2023-04-02T08:44:19.606Z,47.99
2023-04-02T08:46:52.370Z,45.39
2023-04-02T08:49:43.142Z,43.50
2023-04-02T08:52:23.326Z,42.10
2023-04-02T08:54:51.066Z,42.89
2023-04-02T08:57:37.973Z,43.04
2023-04-02T09:00:13.538Z,42.39
2023-04-02T09:02:47.075Z,42.93
2023-04-02T09:05:21.110Z,42.75
2023-04-02T09:07:50.946Z,43.73
2023-04-02T09:10:19.333Z,44.05
2023-04-02T09:12:53.541Z,43.36
2023-04-02T09:15:29.801Z,43.99
2023-04-02T09:18:04.496Z,44.02
2023-04-02T09:20:31.687Z,43.63
2023-04-02T09:22:59.559Z,44.17
2023-04-02T09:25:32.519Z,43.32
2023-04-02T09:28:05.333Z,44.01
2023-04-02T09:30:32.574Z,45.17
2023-04-02T09:33:07.811Z,46.55
2023-04-02T09:35:38.065Z,44.89
2023-04-02T09:38:08.085Z,43.47
2023-04-02T09:40:59.979Z,42.17
2023-04-02T09:43:30.440Z,43.33
2023-04-02T09:46:18.509Z,45.05
2023-04-02T09:49:03.814Z,44.37
2023-04-02T09:51:36.724Z,44.47
2023-04-02T09:54:04.053Z,43.44
2023-04-02T09:56:33.408Z,44.01
2023-04-02T09:59:12.646Z,43.68
2023-04-02T10:01:41.222Z,44.28
2023-04-02T10:04:44.653Z,43.31
2023-04-02T10:07:30.809Z,42.22
2023-04-02T10:10:04.175Z,41.74
2023-04-02T10:12:37.472Z,41.95
2023-04-02T10:15:06.431Z,42.57
2023-04-02T10:17:38.368Z,42.30
2023-04-02T10:20:22.761Z,41.48
2023-04-02T10:22:50.431Z,41.72
2023-04-02T10:25:21.948Z,41.21
2023-04-02T10:28:43.143Z,42.68
2023-04-02T10:31:25.575Z,43.00
2023-04-02T10:34:02.876Z,43.96
2023-04-02T10:36:39.026Z,42.84
2023-04-02T10:39:37.704Z,42.29
2023-04-02T10:42:26.205Z,42.28
2023-04-02T10:45:05.144Z,44.50
2023-04-02T10:47:32.427Z,44.91
2023-04-02T10:50:14.416Z,45.52
2023-04-02T10:52:57.699Z,46.40
2023-04-02T10:55:26.761Z,46.55
2023-04-02T10:57:56.917Z,46.70
2023-04-02T11:00:37.318Z,47.51
2023-04-02T11:03:13.441Z,49.27
2023-04-02T11:05:44.422Z,49.52
2023-04-02T11:08:23.491Z,49.19
2023-04-02T11:11:10.042Z,49.27
2023-04-02T11:13:53.666Z,50.60
2023-04-02T11:16:21.561Z,52.36
2023-04-02T11:19:16.234Z,51.39
2023-04-02T11:21:59.720Z,51.24
2023-04-02T11:24:31.788Z,52.36
2023-04-02T11:27:36.326Z,52.25
2023-04-02T11:30:11.810Z,54.21
2023-04-02T11:32:43.078Z,54.01
2023-04-02T11:35:38.322Z,53.47
2023-04-02T11:38:12.527Z,55.44
2023-04-02T11:40:52.319Z,55.47
2023-04-02T11:43:36.996Z,56.28
2023-04-02T11:46:19.202Z,55.80
2023-04-02T11:48:46.908Z,55.62
2023-04-02T11:51:23.074Z,52.94
2023-04-02T11:53:54.010Z,54.58
2023-04-02T11:56:39.460Z,55.63
2023-04-02T11:59:26.646Z,54.18
2023-04-02T12:02:04.816Z,52.16
2023-04-02T12:04:40.004Z,51.34
2023-04-02T12:07:52.449Z,50.98
2023-04-02T12:10:22.848Z,51.49
2023-04-02T12:12:51.167Z,51.98
2023-04-02T12:15:57.883Z,52.43
2023-04-02T12:18:25.653Z,53.07
2023-04-02T12:20:56.134Z,53.31
2023-04-02T12:23:29.891Z,53.93
2023-04-02T12:26:02.195Z,53.42
2023-04-02T12:28:31.487Z,53.64
2023-04-02T12:31:15.107Z,55.41
2023-04-02T12:33:43.350Z,54.22
2023-04-02T12:36:16.207Z,54.65
2023-04-02T12:39:16.974Z,52.54
2023-04-02T12:41:44.272Z,52.25
2023-04-02T12:44:17.416Z,50.67
2023-04-02T12:46:48.500Z,50.59
2023-04-02T12:49:41.684Z,46.36
2023-04-02T12:52:14.921Z,44.55
2023-04-02T12:54:47.000Z,44.35
2023-04-02T12:57:30.347Z,46.17
2023-04-02T12:59:58.477Z,45.65
2023-04-02T13:02:31.944Z,46.25
2023-04-02T13:05:01.691Z,45.83
2023-04-02T13:07:33.685Z,45.20
2023-04-02T13:10:03.077Z,45.72
2023-04-02T13:12:37.506Z,49.30
2023-04-02T13:15:17.075Z,50.02
2023-04-02T13:17:48.271Z,47.87
2023-04-02T13:20:38.912Z,47.94
2023-04-02T13:23:30.961Z,48.09
2023-04-02T13:26:01.388Z,49.21
2023-04-02T13:28:29.640Z,49.28
2023-04-02T13:30:57.100Z,48.64
2023-04-02T13:33:24.228Z,48.74
2023-04-02T13:35:51.621Z,46.94
2023-04-02T13:38:18.802Z,48.96
2023-04-02T13:40:46.606Z,51.93
2023-04-02T13:43:19.753Z,51.55
2023-04-02T13:45:51.886Z,52.00
2023-04-02T13:48:19.431Z,51.46
2023-04-02T13:50:46.876Z,53.06
2023-04-02T13:53:22.446Z,57.05
2023-04-02T13:55:49.792Z,58.39
2023-04-02T13:58:17.009Z,59.37
2023-04-02T14:00:44.358Z,60.53
2023-04-02T14:03:22.548Z,60.37
2023-04-02T14:06:10.771Z,58.23
2023-04-02T14:08:51.132Z,58.78
2023-04-02T14:11:27.396Z,58.30
2023-04-02T14:14:23.927Z,60.12
2023-04-02T14:17:11.583Z,59.15
2023-04-02T14:19:59.883Z,58.88
2023-04-02T14:22:48.055Z,59.12
2023-04-02T14:25:36.983Z,60.08
2023-04-02T14:28:23.926Z,61.10
2023-04-02T14:31:05.770Z,61.53
2023-04-02T14:34:16.420Z,59.64
2023-04-02T14:36:56.671Z,59.38
2023-04-02T14:39:38.754Z,59.77
2023-04-02T14:42:44.372Z,60.28
2023-04-02T14:45:23.456Z,60.24
2023-04-02T14:47:57.824Z,59.32
2023-04-02T14:50:33.275Z,61.57
2023-04-02T14:53:13.375Z,59.62
2023-04-02T14:55:44.135Z,58.54
2023-04-02T14:58:31.864Z,57.86
2023-04-02T15:01:03.351Z,57.38
2023-04-02T15:03:43.209Z,56.75
2023-04-02T15:06:21.484Z,56.36
2023-04-02T15:09:09.265Z,55.03
2023-04-02T15:11:41.902Z,55.72
2023-04-02T15:14:20.802Z,54.97
2023-04-02T15:16:48.185Z,54.40
2023-04-02T15:19:18.069Z,53.76
2023-04-02T15:21:57.706Z,53.23
2023-04-02T15:24:51.263Z,52.55
2023-04-02T15:27:34.555Z,54.80
2023-04-02T15:30:13.101Z,54.93
2023-04-02T15:32:41.969Z,54.63
2023-04-02T15:35:22.577Z,55.59
2023-04-02T15:37:53.251Z,56.54
2023-04-02T15:40:24.386Z,55.82
2023-04-02T15:43:20.223Z,54.82
2023-04-02T15:46:08.311Z,55.22
2023-04-02T15:48:53.743Z,56.36
2023-04-02T15:51:33.870Z,57.16
2023-04-02T15:54:11.875Z,57.55
2023-04-02T15:57:01.573Z,57.43
2023-04-02T16:00:22.757Z,58.39
2023-04-02T16:03:11.817Z,58.44
2023-04-02T16:05:50.274Z,58.43
2023-04-02T16:08:33.458Z,58.33
2023-04-02T16:11:00.831Z,59.45
2023-04-02T16:13:35.325Z,59.35
2023-04-02T16:16:07.340Z,60.05
2023-04-02T16:18:49.538Z,60.04
2023-04-02T16:21:22.356Z,60.96
2023-04-02T16:23:50.561Z,62.36
2023-04-02T16:26:27.382Z,63.42
2023-04-02T16:29:16.785Z,64.63
2023-04-02T16:32:11.557Z,65.05
2023-04-02T16:35:23.976Z,65.73
2023-04-02T16:37:58.550Z,66.43
2023-04-02T16:41:07.020Z,66.60
2023-04-02T16:43:42.407Z,67.25
2023-04-02T16:46:38.836Z,67.82
2023-04-02T16:49:38.559Z,67.55
2023-04-02T16:52:25.817Z,67.26
2023-04-02T16:55:09.557Z,67.48
2023-04-02T16:57:50.685Z,67.60
2023-04-02T17:00:32.529Z,66.80
2023-04-02T17:03:19.234Z,66.50
2023-04-02T17:06:01.985Z,66.68
2023-04-02T17:08:57.111Z,65.99
2023-04-02T17:11:30.506Z,65.72
2023-04-02T17:14:06.416Z,65.80
2023-04-02T17:16:43.905Z,66.42
2023-04-02T17:19:14.881Z,67.36
2023-04-02T17:21:45.607Z,67.54
2023-04-02T17:24:21.906Z,67.58
2023-04-02T17:26:54.085Z,67.91
2023-04-02T17:29:35.412Z,67.36
2023-04-02T17:32:06.603Z,67.13
2023-04-02T17:34:33.774Z,67.16
2023-04-02T17:37:07.122Z,67.19
2023-04-02T17:39:41.976Z,67.33
2023-04-02T17:42:36.242Z,67.66
2023-04-02T17:45:19.558Z,65.80
2023-04-02T17:47:59.221Z,65.70
2023-04-02T17:50:37.766Z,67.52
2023-04-02T17:53:21.925Z,70.66
2023-04-02T17:56:22.083Z,73.77
2023-04-02T17:58:55.208Z,74.80
2023-04-02T18:01:22.381Z,75.93
2023-04-02T18:04:03.288Z,78.30
2023-04-02T18:06:42.065Z,80.43
2023-04-02T18:09:22.392Z,81.84
2023-04-02T18:12:01.594Z,82.20
2023-04-02T18:15:02.195Z,83.79
2023-04-02T18:17:51.273Z,86.38
2023-04-02T18:20:34.897Z,89.00
2023-04-02T18:23:09.582Z,90.68
2023-04-02T18:25:42.951Z,92.52
2023-04-02T18:28:45.149Z,92.74
2023-04-02T18:31:19.691Z,93.54
2023-04-02T18:34:30.650Z,92.73
2023-04-02T18:37:15.966Z,93.16
2023-04-02T18:40:22.285Z,94.87
2023-04-02T18:42:51.207Z,95.91
2023-04-02T18:45:35.065Z,96.57
2023-04-02T18:48:35.261Z,97.00
2023-04-02T18:51:06.921Z,98.04
2023-04-02T18:53:37.311Z,93.83
2023-04-02T18:56:11.983Z,88.90
2023-04-02T18:58:53.086Z,89.59
2023-04-02T19:01:28.642Z,92.66
2023-04-02T19:04:04.921Z,94.39
2023-04-02T19:06:47.436Z,96.49
2023-04-02T19:09:25.516Z,97.89
2023-04-02T19:11:54.031Z,98.55
2023-04-02T19:14:24.128Z,100.00
2023-04-02T19:17:17.789Z,100.00
2023-04-02T19:19:45.943Z,100.00
2023-04-02T19:22:24.043Z,100.00
2023-04-02T19:25:02.029Z,100.00
2023-04-02T19:28:12.199Z,100.00
2023-04-02T19:30:57.581Z,100.00
2023-04-02T19:33:42.804Z,100.00
2023-04-02T19:36:16.620Z,100.00
2023-04-02T19:39:17.889Z,100.00
2023-04-02T19:42:22.544Z,100.00
2023-04-02T19:44:52.926Z,100.00
2023-04-02T19:47:21.216Z,100.00
2023-04-02T19:49:49.001Z,100.00
2023-04-02T19:52:16.852Z,100.00
2023-04-02T19:54:44.859Z,100.00
2023-04-02T19:57:17.208Z,100.00
2023-04-02T19:59:45.875Z,100.00
2023-04-02T20:02:13.836Z,100.00
2023-04-02T20:04:43.157Z,100.00
2023-04-02T20:07:11.018Z,100.00
2023-04-02T20:09:38.736Z,100.00
2023-04-02T20:12:07.371Z,100.00
2023-04-02T20:14:35.394Z,100.00
2023-04-02T20:17:03.162Z,100.00
2023-04-02T20:19:30.822Z,100.00
2023-04-02T20:21:58.396Z,100.00
2023-04-02T20:24:26.207Z,100.00
2023-04-02T20:26:53.511Z,100.00
2023-04-02T20:29:22.566Z,100.00
2023-04-02T20:31:50.032Z,100.00
2023-04-02T20:34:18.066Z,100.00
2023-04-02T20:36:46.254Z,100.00
2023-04-02T20:39:19.557Z,100.00
2023-04-02T20:41:47.738Z,100.00
2023-04-02T20:44:14.954Z,100.00
2023-04-02T20:46:42.606Z,100.00
2023-04-02T20:49:09.713Z,100.00
2023-04-02T20:51:36.860Z,100.00
2023-04-02T20:54:04.406Z,100.00
2023-04-02T20:56:31.860Z,100.00
2023-04-02T20:58:59.039Z,100.00
2023-04-02T21:01:30.303Z,100.00
2023-04-02T21:04:02.799Z,100.00
2023-04-02T21:06:32.884Z,100.00
2023-04-02T21:09:02.122Z,100.00
2023-04-02T21:11:29.426Z,100.00
2023-04-02T21:13:56.846Z,100.00
2023-04-02T21:16:29.821Z,100.00
2023-04-02T21:19:00.905Z,100.00
2023-04-02T21:21:28.834Z,100.00
2023-04-02T21:23:59.597Z,100.00
2023-04-02T21:26:28.409Z,100.00
2023-04-02T21:28:56.082Z,100.00
2023-04-02T21:31:25.859Z,100.00
2023-04-02T21:33:55.844Z,100.00
2023-04-02T21:36:26.081Z,100.00
2023-04-02T21:39:01.917Z,100.00
2023-04-02T21:41:32.530Z,100.00
2023-04-02T21:44:03.252Z,100.00
2023-04-02T21:46:33.596Z,100.00
2023-04-02T21:49:01.142Z,100.00
2023-04-02T21:51:31.005Z,100.00
2023-04-02T21:53:59.262Z,100.00
2023-04-02T21:56:31.809Z,100.00
2023-04-02T21:59:01.960Z,100.00
2023-04-02T22:01:34.686Z,100.00
2023-04-02T22:04:04.530Z,100.00
2023-04-02T22:06:33.377Z,100.00
2023-04-02T22:09:05.050Z,100.00
2023-04-02T22:11:35.806Z,100.00
2023-04-02T22:14:03.746Z,100.00
2023-04-02T22:16:32.755Z,100.00
2023-04-02T22:19:02.149Z,100.00
2023-04-02T22:21:30.681Z,100.00
2023-04-02T22:24:01.816Z,100.00
2023-04-02T22:26:31.805Z,100.00
2023-04-02T22:28:59.636Z,100.00
2023-04-02T22:31:29.832Z,100.00
2023-04-02T22:33:58.158Z,100.00
2023-04-02T22:36:26.832Z,100.00
2023-04-02T22:38:54.398Z,100.00
2023-04-02T22:41:26.489Z,100.00
2023-04-02T22:43:55.355Z,100.00
2023-04-02T22:46:23.566Z,100.00
2023-04-02T22:48:51.034Z,100.00
2023-04-02T22:51:20.808Z,100.00
2023-04-02T22:53:49.082Z,100.00
2023-04-02T22:56:21.730Z,100.00
2023-04-02T22:58:49.300Z,100.00
2023-04-02T23:01:23.786Z,100.00
2023-04-02T23:03:53.344Z,100.00
2023-04-02T23:06:20.967Z,100.00
2023-04-02T23:08:48.164Z,100.00
2023-04-02T23:11:23.575Z,100.00
2023-04-02T23:13:52.967Z,100.00
2023-04-02T23:16:22.999Z,100.00
2023-04-02T23:18:51.393Z,100.00
2023-04-02T23:21:20.115Z,100.00
2023-04-02T23:23:48.520Z,100.00
2023-04-02T23:26:19.962Z,100.00
2023-04-02T23:28:47.128Z,100.00
2023-04-02T23:31:20.189Z,100.00
2023-04-02T23:33:47.983Z,100.00
2023-04-02T23:36:21.672Z,100.00
2023-04-02T23:38:48.928Z,100.00
2023-04-02T23:41:17.274Z,100.00
2023-04-02T23:43:44.623Z,99.74
2023-04-02T23:46:11.978Z,100.00
2023-04-02T23:48:39.245Z,100.00
2023-04-02T23:51:07.186Z,99.90
2023-04-02T23:53:34.988Z,100.00
2023-04-02T23:56:02.220Z,100.00
2023-04-02T23:58:29.700Z,100.00
